createdAt,value
2023-02-19T00:01:17.944Z,10.60
2023-02-19T00:03:49.780Z,8.80
2023-02-19T00:06:16.640Z,21.90
2023-02-19T00:08:43.457Z,9.75
2023-02-19T00:11:18.204Z,7.72
2023-02-19T00:13:47.504Z,11.60
2023-02-19T00:16:16.500Z,7.97
2023-02-19T00:18:44.191Z,6.88
2023-02-19T00:21:11.627Z,9.95
2023-02-19T00:23:38.701Z,14.57
2023-02-19T00:26:17.660Z,7.32
2023-02-19T00:28:47.862Z,8.15
2023-02-19T00:31:18.947Z,11.48
2023-02-19T00:33:46.857Z,8.52
2023-02-19T00:36:14.299Z,6.57
2023-02-19T00:38:42.410Z,8.15
2023-02-19T00:41:22.152Z,8.05
2023-02-19T00:43:48.994Z,8.25
2023-02-19T00:46:22.128Z,7.35
2023-02-19T00:48:49.378Z,7.25
2023-02-19T00:51:16.451Z,8.20
2023-02-19T00:53:43.511Z,7.72
2023-02-19T00:56:11.289Z,7.35
2023-02-19T00:58:38.764Z,7.05
2023-02-19T01:01:07.270Z,7.18
2023-02-19T01:03:35.652Z,8.13
2023-02-19T01:06:04.317Z,6.00
2023-02-19T01:08:32.206Z,5.93
2023-02-19T01:11:02.168Z,6.40
2023-02-19T01:13:29.691Z,7.68
2023-02-19T01:16:07.302Z,8.10
2023-02-19T01:18:34.063Z,6.30
2023-02-19T01:21:05.760Z,7.70
2023-02-19T01:23:32.855Z,8.45
2023-02-19T01:25:59.585Z,8.15
2023-02-19T01:28:26.338Z,9.32
2023-02-19T01:30:53.251Z,8.18
2023-02-19T01:33:20.003Z,11.82
2023-02-19T01:35:46.710Z,8.95
2023-02-19T01:38:13.693Z,8.93
2023-02-19T01:40:40.418Z,8.18
2023-02-19T01:43:16.099Z,8.82
2023-02-19T01:45:44.783Z,10.32
2023-02-19T01:48:29.188Z,9.45
2023-02-19T01:51:17.091Z,7.85
2023-02-19T01:53:48.100Z,8.07
2023-02-19T01:56:16.712Z,6.85
2023-02-19T01:58:44.107Z,6.53
2023-02-19T02:01:11.677Z,7.55
2023-02-19T02:03:40.890Z,5.63
2023-02-19T02:06:22.439Z,5.70
2023-02-19T02:09:10.519Z,3.92
2023-02-19T02:11:38.902Z,4.43
2023-02-19T02:14:05.755Z,3.47
2023-02-19T02:16:41.735Z,3.53
2023-02-19T02:19:29.666Z,3.22
2023-02-19T02:22:13.957Z,3.00
2023-02-19T02:25:17.878Z,4.43
2023-02-19T02:27:47.529Z,4.53
2023-02-19T02:30:18.149Z,3.08
2023-02-19T02:33:08.228Z,3.65
2023-02-19T02:35:58.599Z,2.70
2023-02-19T02:38:29.351Z,8.32
2023-02-19T02:40:57.046Z,4.38
2023-02-19T02:43:24.890Z,4.00
2023-02-19T02:45:52.136Z,3.70
2023-02-19T02:48:26.575Z,5.15
2023-02-19T02:51:04.632Z,4.22
2023-02-19T02:54:02.178Z,3.95
2023-02-19T02:56:29.384Z,4.35
2023-02-19T02:59:01.072Z,4.63
2023-02-19T03:01:52.084Z,4.35
2023-02-19T03:04:26.712Z,5.25
2023-02-19T03:06:54.752Z,4.30
2023-02-19T03:09:31.962Z,4.20
2023-02-19T03:12:21.758Z,4.22
2023-02-19T03:15:10.742Z,4.72
2023-02-19T03:18:19.401Z,4.57
2023-02-19T03:20:50.306Z,4.50
2023-02-19T03:23:18.522Z,4.05
2023-02-19T03:26:03.505Z,5.95
2023-02-19T03:28:59.599Z,4.20
2023-02-19T03:31:29.220Z,4.32
2023-02-19T03:34:02.203Z,5.97
2023-02-19T03:36:38.317Z,3.75
2023-02-19T03:39:07.535Z,3.80
2023-02-19T03:42:04.891Z,4.30
2023-02-19T03:44:35.566Z,3.65
2023-02-19T03:47:19.081Z,4.25
2023-02-19T03:49:55.963Z,4.10
2023-02-19T03:53:03.549Z,3.33
2023-02-19T03:55:39.457Z,2.95
2023-02-19T03:58:24.875Z,4.40
2023-02-19T04:00:57.416Z,3.10
2023-02-19T04:03:26.818Z,3.40
2023-02-19T04:06:00.876Z,4.15
2023-02-19T04:08:28.160Z,3.20
2023-02-19T04:11:00.689Z,4.65
2023-02-19T04:13:34.685Z,3.47
2023-02-19T04:16:07.126Z,2.42
2023-02-19T04:18:37.233Z,4.85
2023-02-19T04:21:04.770Z,3.10
2023-02-19T04:23:35.837Z,2.90
2023-02-19T04:26:03.361Z,3.05
2023-02-19T04:28:30.318Z,3.88
2023-02-19T04:30:57.062Z,2.20
2023-02-19T04:33:23.881Z,3.15
2023-02-19T04:35:50.604Z,3.33
2023-02-19T04:38:17.289Z,3.75
2023-02-19T04:40:44.132Z,3.80
2023-02-19T04:43:11.337Z,3.13
2023-02-19T04:45:38.791Z,3.72
2023-02-19T04:48:06.027Z,8.13
2023-02-19T04:50:32.701Z,3.22
2023-02-19T04:52:59.425Z,4.00
2023-02-19T04:55:26.331Z,3.47
2023-02-19T04:57:53.201Z,3.70
2023-02-19T05:00:20.059Z,4.82
2023-02-19T05:02:46.913Z,3.70
2023-02-19T05:05:13.740Z,4.05
2023-02-19T05:07:40.558Z,4.45
2023-02-19T05:10:07.702Z,4.35
2023-02-19T05:12:34.716Z,6.65
2023-02-19T05:15:01.553Z,3.95
2023-02-19T05:17:28.491Z,4.40
2023-02-19T05:19:55.214Z,5.85
2023-02-19T05:22:21.888Z,4.40
2023-02-19T05:24:48.961Z,14.85
2023-02-19T05:27:15.667Z,4.63
2023-02-19T05:29:42.399Z,4.05
2023-02-19T05:32:09.368Z,4.88
2023-02-19T05:34:36.079Z,4.85
2023-02-19T05:37:02.845Z,5.93
2023-02-19T05:39:29.726Z,3.78
2023-02-19T05:41:56.515Z,4.53
2023-02-19T05:44:23.325Z,3.88
2023-02-19T05:46:50.402Z,7.53
2023-02-19T05:49:17.365Z,5.70
2023-02-19T05:51:44.375Z,5.30
2023-02-19T05:54:11.209Z,4.95
2023-02-19T05:56:40.105Z,4.47
2023-02-19T05:59:21.426Z,5.97
2023-02-19T06:01:49.941Z,6.40
2023-02-19T06:04:19.134Z,4.25
2023-02-19T06:06:47.196Z,4.00
2023-02-19T06:09:14.086Z,5.65
2023-02-19T06:11:41.288Z,6.25
2023-02-19T06:14:08.176Z,6.88
2023-02-19T06:16:35.241Z,4.05
2023-02-19T06:19:03.426Z,5.45
2023-02-19T06:21:30.180Z,6.95
2023-02-19T06:23:56.989Z,4.45
2023-02-19T06:26:25.335Z,4.47
2023-02-19T06:28:54.073Z,5.63
2023-02-19T06:31:22.376Z,4.72
2023-02-19T06:33:50.732Z,5.93
2023-02-19T06:36:19.655Z,4.75
2023-02-19T06:38:46.447Z,4.32
2023-02-19T06:41:13.885Z,6.85
2023-02-19T06:43:41.091Z,3.88
2023-02-19T06:46:08.593Z,4.47
2023-02-19T06:48:35.853Z,4.93
2023-02-19T06:51:03.310Z,5.78
2023-02-19T06:53:30.390Z,4.93
2023-02-19T06:55:58.146Z,5.00
2023-02-19T06:58:25.245Z,4.95
2023-02-19T07:01:13.998Z,6.00
2023-02-19T07:03:43.635Z,6.28
2023-02-19T07:06:10.423Z,7.47
2023-02-19T07:08:37.074Z,5.68
2023-02-19T07:11:04.224Z,5.72
2023-02-19T07:13:31.055Z,6.90
2023-02-19T07:16:08.005Z,5.90
2023-02-19T07:18:35.050Z,6.00
2023-02-19T07:21:10.977Z,5.38
2023-02-19T07:23:38.376Z,7.13
2023-02-19T07:26:05.559Z,11.63
2023-02-19T07:28:32.285Z,6.43
2023-02-19T07:31:03.414Z,6.20
2023-02-19T07:33:30.860Z,5.97
2023-02-19T07:35:57.694Z,6.93
2023-02-19T07:38:25.239Z,6.75
2023-02-19T07:40:52.776Z,6.60
2023-02-19T07:43:19.638Z,6.43
2023-02-19T07:45:46.428Z,6.68
2023-02-19T07:48:13.424Z,7.35
2023-02-19T07:50:40.207Z,6.15
2023-02-19T07:53:06.790Z,6.32
2023-02-19T07:55:34.035Z,6.97
2023-02-19T07:58:01.107Z,6.95
2023-02-19T08:00:28.031Z,7.07
2023-02-19T08:03:00.770Z,7.93
2023-02-19T08:05:30.663Z,7.97
2023-02-19T08:07:58.837Z,9.48
2023-02-19T08:10:44.897Z,5.82
2023-02-19T08:13:19.606Z,5.78
2023-02-19T08:15:46.993Z,6.72
2023-02-19T08:18:14.724Z,6.03
2023-02-19T08:20:41.377Z,5.88
2023-02-19T08:23:08.991Z,6.38
2023-02-19T08:25:36.137Z,8.68
2023-02-19T08:28:02.982Z,7.20
2023-02-19T08:30:30.995Z,9.38
2023-02-19T08:33:01.312Z,8.88
2023-02-19T08:35:28.967Z,8.07
2023-02-19T08:37:57.441Z,9.07
2023-02-19T08:40:25.301Z,12.55
2023-02-19T08:42:52.176Z,9.38
2023-02-19T08:45:19.243Z,9.63
2023-02-19T08:47:46.705Z,7.30
2023-02-19T08:50:13.450Z,9.70
2023-02-19T08:52:42.582Z,8.63
2023-02-19T08:55:09.408Z,6.72
2023-02-19T08:57:37.732Z,9.00
2023-02-19T09:00:06.540Z,8.05
2023-02-19T09:02:33.538Z,11.75
2023-02-19T09:05:00.289Z,23.42
2023-02-19T09:07:27.648Z,14.07
2023-02-19T09:09:54.644Z,15.85
2023-02-19T09:12:21.466Z,12.27
2023-02-19T09:14:48.372Z,10.68
2023-02-19T09:17:15.007Z,8.75
2023-02-19T09:19:41.951Z,11.02
2023-02-19T09:22:09.283Z,13.00
2023-02-19T09:24:36.172Z,21.30
2023-02-19T09:27:02.835Z,26.10
2023-02-19T09:29:29.771Z,12.00
2023-02-19T09:32:00.463Z,7.75
2023-02-19T09:34:28.403Z,12.88
2023-02-19T09:36:55.664Z,12.98
2023-02-19T09:39:22.505Z,7.43
2023-02-19T09:41:52.284Z,6.57
2023-02-19T09:44:34.446Z,4.70
2023-02-19T09:47:02.222Z,4.97
2023-02-19T09:49:33.854Z,5.38
2023-02-19T09:52:12.440Z,6.78
2023-02-19T09:54:40.020Z,6.75
2023-02-19T09:57:14.706Z,6.15
2023-02-19T09:59:47.969Z,7.05
2023-02-19T10:02:18.762Z,6.70
2023-02-19T10:04:46.976Z,5.30
2023-02-19T10:07:26.114Z,5.13
2023-02-19T10:12:26.016Z,3.35
2023-02-19T10:14:56.497Z,4.22
2023-02-19T10:17:25.658Z,8.63
2023-02-19T10:19:52.985Z,5.70
2023-02-19T10:22:20.519Z,4.75
2023-02-19T10:24:51.835Z,5.50
2023-02-19T10:27:18.977Z,5.47
2023-02-19T10:29:47.412Z,7.18
2023-02-19T10:32:14.273Z,6.78
2023-02-19T10:34:40.963Z,5.57
2023-02-19T10:37:12.458Z,5.68
2023-02-19T10:39:43.257Z,5.22
2023-02-19T10:42:23.329Z,4.35
2023-02-19T10:44:54.359Z,4.47
2023-02-19T10:47:23.529Z,4.95
2023-02-19T10:49:51.379Z,3.90
2023-02-19T10:52:22.579Z,3.92
2023-02-19T10:54:56.711Z,3.13
2023-02-19T10:57:30.662Z,4.00
2023-02-19T11:00:19.786Z,2.40
2023-02-19T11:02:47.105Z,2.95
2023-02-19T11:05:23.465Z,2.90
2023-02-19T11:07:53.791Z,2.38
2023-02-19T11:10:29.036Z,2.95
2023-02-19T11:12:59.633Z,2.40
2023-02-19T11:15:33.625Z,2.55
2023-02-19T11:18:12.961Z,1.75
2023-02-19T11:20:48.918Z,2.60
2023-02-19T11:23:20.089Z,2.28
2023-02-19T11:25:51.276Z,2.38
2023-02-19T11:28:37.972Z,3.45
2023-02-19T11:31:23.189Z,2.97
2023-02-19T11:36:30.900Z,3.55
2023-02-19T11:39:02.052Z,3.35
2023-02-19T11:52:10.096Z,2.88
2023-02-19T12:10:17.894Z,1.52
2023-02-19T12:13:06.595Z,2.92
2023-02-19T12:16:01.379Z,2.03
2023-02-19T12:18:40.355Z,1.20
2023-02-19T12:24:01.568Z,1.58
2023-02-19T12:29:28.341Z,1.95
2023-02-19T12:32:23.497Z,2.13
2023-02-19T12:35:12.696Z,2.53
2023-02-19T12:37:58.226Z,1.40
2023-02-19T12:40:43.426Z,2.17
2023-02-19T12:43:20.642Z,2.92
2023-02-19T12:46:13.910Z,3.05
2023-02-19T12:48:48.356Z,3.13
2023-02-19T12:51:23.511Z,3.08
2023-02-19T12:53:56.331Z,3.58
2023-02-19T12:56:37.135Z,4.13
2023-02-19T13:29:29.938Z,11.07
2023-02-19T14:15:44.599Z,4.18
2023-02-19T14:18:42.746Z,3.72
2023-02-19T14:21:28.055Z,3.10
2023-02-19T14:23:58.400Z,5.13
2023-02-19T14:26:26.689Z,4.32
2023-02-19T14:28:53.996Z,4.50
2023-02-19T14:31:29.277Z,3.72
2023-02-19T14:34:00.525Z,6.30
2023-02-19T14:36:30.074Z,6.65
2023-02-19T14:38:59.206Z,4.55
2023-02-19T14:41:27.234Z,3.65
2023-02-19T14:43:56.950Z,5.10
2023-02-19T14:46:32.183Z,11.95
2023-02-19T14:49:05.553Z,13.88
2023-02-19T14:51:40.813Z,24.35
2023-02-19T14:54:15.787Z,7.53
2023-02-19T14:56:45.407Z,7.22
2023-02-19T14:59:11.967Z,11.88
2023-02-19T15:01:39.077Z,6.93
2023-02-19T15:04:06.521Z,7.78
2023-02-19T15:06:35.180Z,7.68
2023-02-19T15:09:07.100Z,3.63
2023-02-19T15:11:35.318Z,13.38
2023-02-19T15:14:04.549Z,5.10
2023-02-19T15:16:32.712Z,4.80
2023-02-19T15:19:00.219Z,5.57
2023-02-19T15:21:32.279Z,6.82
2023-02-19T15:24:04.332Z,8.63
2023-02-19T15:26:42.299Z,7.78
2023-02-19T15:29:17.065Z,10.45
2023-02-19T15:31:52.322Z,8.25
2023-02-19T15:34:20.516Z,8.52
2023-02-19T15:36:48.256Z,15.65
2023-02-19T15:39:26.208Z,4.05
2023-02-19T15:42:14.336Z,9.82
2023-02-19T15:45:18.766Z,3.40
2023-02-19T15:47:53.912Z,4.95
2023-02-19T15:50:31.952Z,7.32
2023-02-19T15:52:59.601Z,5.72
2023-02-19T15:55:51.977Z,6.90
2023-02-19T15:58:56.412Z,7.85
2023-02-19T16:01:31.118Z,6.22
2023-02-19T16:03:58.499Z,5.10
2023-02-19T16:06:26.517Z,6.22
2023-02-19T16:09:02.381Z,2.63
2023-02-19T16:11:53.201Z,4.30
2023-02-19T16:14:30.663Z,7.57
2023-02-19T16:17:11.449Z,3.67
2023-02-19T16:19:47.996Z,8.95
2023-02-19T16:22:18.588Z,19.92
2023-02-19T16:24:47.561Z,6.70
2023-02-19T16:27:26.097Z,11.48
2023-02-19T16:29:53.260Z,16.00
2023-02-19T16:32:20.090Z,12.93
2023-02-19T16:34:48.440Z,7.45
2023-02-19T16:37:35.134Z,16.25
2023-02-19T16:40:11.234Z,30.67
2023-02-19T16:42:50.656Z,14.15
2023-02-19T16:45:18.012Z,8.80
2023-02-19T16:47:48.205Z,35.00
2023-02-19T16:50:47.670Z,28.70
2023-02-19T16:53:24.801Z,57.28
2023-02-19T16:55:52.129Z,34.80
2023-02-19T16:58:18.827Z,27.17
2023-02-19T17:00:45.587Z,16.42
2023-02-19T17:03:15.360Z,22.33
2023-02-19T17:05:42.533Z,4.80
2023-02-19T17:08:46.318Z,4.55
2023-02-19T17:11:15.475Z,2.67
2023-02-19T17:13:42.931Z,7.30
2023-02-19T17:16:17.407Z,8.20
2023-02-19T17:18:44.195Z,9.35
2023-02-19T17:21:15.956Z,8.18
2023-02-19T17:23:42.759Z,8.85
2023-02-19T17:26:21.690Z,20.10
2023-02-19T17:28:48.883Z,8.07
2023-02-19T17:31:16.258Z,18.33
2023-02-19T17:33:43.711Z,12.52
2023-02-19T17:36:38.135Z,16.60
2023-02-19T17:39:07.147Z,17.98
2023-02-19T17:41:33.801Z,14.77
2023-02-19T17:44:00.550Z,17.73
2023-02-19T17:46:27.752Z,14.98
2023-02-19T17:48:55.206Z,8.05
2023-02-19T17:51:22.388Z,14.38
2023-02-19T17:53:49.353Z,7.53
2023-02-19T17:56:20.746Z,10.18
2023-02-19T17:58:47.766Z,8.15
2023-02-19T18:01:15.131Z,5.90
2023-02-19T18:03:42.910Z,9.68
2023-02-19T18:06:09.734Z,8.60
2023-02-19T18:08:36.893Z,5.63
2023-02-19T18:11:03.899Z,4.45
2023-02-19T18:13:30.689Z,4.47
2023-02-19T18:15:57.526Z,4.22
2023-02-19T18:18:24.154Z,4.82
2023-02-19T18:20:50.956Z,13.85
2023-02-19T18:23:17.705Z,7.43
2023-02-19T18:26:19.036Z,11.30
2023-02-19T18:28:45.854Z,7.10
2023-02-19T18:31:12.730Z,22.23
2023-02-19T18:33:39.696Z,9.15
2023-02-19T18:36:10.565Z,7.22
2023-02-19T18:38:37.423Z,5.88
2023-02-19T18:41:04.268Z,7.82
2023-02-19T18:43:31.211Z,6.40
2023-02-19T18:45:58.027Z,7.03
2023-02-19T18:48:24.858Z,3.45
2023-02-19T18:50:51.663Z,3.80
2023-02-19T18:53:18.448Z,2.50
2023-02-19T18:55:45.279Z,4.32
2023-02-19T18:58:12.051Z,2.58
2023-02-19T19:00:38.736Z,6.57
2023-02-19T19:03:06.510Z,1.90
2023-02-19T19:05:33.450Z,2.20
2023-02-19T19:08:01.847Z,1.90
2023-02-19T19:10:29.923Z,1.65
2023-02-19T19:12:57.594Z,2.72
2023-02-19T19:15:24.747Z,1.42
2023-02-19T19:17:52.295Z,3.55
2023-02-19T19:20:20.527Z,7.25
2023-02-19T19:22:51.711Z,5.05
2023-02-19T19:25:19.499Z,5.15
2023-02-19T19:27:46.887Z,1.48
2023-02-19T19:30:14.367Z,2.30
2023-02-19T19:32:41.965Z,1.40
2023-02-19T19:35:09.556Z,2.47
2023-02-19T19:37:36.298Z,2.90
2023-02-19T19:40:04.061Z,1.33
2023-02-19T19:42:30.834Z,3.08
2023-02-19T19:44:58.127Z,4.68
2023-02-19T19:47:25.406Z,2.33
2023-02-19T19:49:52.453Z,3.42
2023-02-19T19:52:19.191Z,12.00
2023-02-19T19:54:45.830Z,6.20
2023-02-19T19:57:13.138Z,3.38
2023-02-19T19:59:39.844Z,3.60
2023-02-19T20:02:07.729Z,3.95
2023-02-19T20:04:34.448Z,3.17
2023-02-19T20:07:02.362Z,3.20
2023-02-19T20:09:29.564Z,2.35
2023-02-19T20:11:56.594Z,2.15
2023-02-19T20:14:24.770Z,2.17
2023-02-19T20:16:52.618Z,2.17
2023-02-19T20:19:20.231Z,1.88
2023-02-19T20:21:50.839Z,3.60
2023-02-19T20:24:24.362Z,2.70
2023-02-19T20:26:53.396Z,2.83
2023-02-19T20:29:20.378Z,2.83
2023-02-19T20:31:50.883Z,4.72
2023-02-19T20:34:18.542Z,2.90
2023-02-19T20:36:46.806Z,2.67
2023-02-19T20:39:16.420Z,3.13
2023-02-19T20:41:48.837Z,2.92
2023-02-19T20:44:19.454Z,4.13
2023-02-19T20:46:48.940Z,4.93
2023-02-19T20:49:17.598Z,4.30
2023-02-19T20:51:50.232Z,5.95
2023-02-19T20:54:20.780Z,11.05
2023-02-19T20:56:54.177Z,8.25
2023-02-19T20:59:24.337Z,12.15
2023-02-19T21:01:51.864Z,10.23
2023-02-19T21:04:19.118Z,13.80
2023-02-19T21:06:46.100Z,10.05
2023-02-19T21:09:13.029Z,10.88
2023-02-19T21:11:39.813Z,11.40
2023-02-19T21:14:06.775Z,12.18
2023-02-19T21:16:33.766Z,11.95
2023-02-19T21:19:00.909Z,11.70
2023-02-19T21:21:30.028Z,10.27
2023-02-19T21:23:58.136Z,17.05
2023-02-19T21:26:25.699Z,9.80
2023-02-19T21:28:52.672Z,10.43
2023-02-19T21:31:21.664Z,9.35
2023-02-19T21:33:49.375Z,8.48
2023-02-19T21:36:18.491Z,8.15
2023-02-19T21:38:45.256Z,8.35
2023-02-19T21:41:12.000Z,7.03
2023-02-19T21:43:39.939Z,6.43
2023-02-19T21:46:06.711Z,7.85
2023-02-19T21:48:33.706Z,7.15
2023-02-19T21:51:00.911Z,6.43
2023-02-19T21:53:27.779Z,7.07
2023-02-19T21:55:58.808Z,5.63
2023-02-19T21:58:26.405Z,6.50
2023-02-19T22:00:58.731Z,5.60
2023-02-19T22:03:26.667Z,5.60
2023-02-19T22:05:57.770Z,5.22
2023-02-19T22:08:26.512Z,5.85
2023-02-19T22:11:04.932Z,5.68
2023-02-19T22:13:32.272Z,5.93
2023-02-19T22:16:00.399Z,5.55
2023-02-19T22:18:27.583Z,5.72
2023-02-19T22:20:54.288Z,5.47
2023-02-19T22:23:21.062Z,5.25
2023-02-19T22:25:47.665Z,5.35
2023-02-19T22:28:14.370Z,5.57
2023-02-19T22:30:42.819Z,5.72
2023-02-19T22:33:09.923Z,5.47
2023-02-19T22:35:36.776Z,5.97
2023-02-19T22:38:03.536Z,5.28
2023-02-19T22:40:30.233Z,5.25
2023-02-19T22:42:56.930Z,5.45
2023-02-19T22:45:25.137Z,5.32
2023-02-19T22:47:55.538Z,5.55
2023-02-19T22:50:22.873Z,4.97
2023-02-19T22:52:50.257Z,4.75
2023-02-19T22:55:17.311Z,5.25
2023-02-19T22:57:43.949Z,5.38
2023-02-19T23:00:17.463Z,5.43
2023-02-19T23:02:44.224Z,4.35
2023-02-19T23:05:10.794Z,5.35
2023-02-19T23:07:37.512Z,5.32
2023-02-19T23:10:04.371Z,5.90
2023-02-19T23:12:31.052Z,4.80
2023-02-19T23:14:57.774Z,6.07
2023-02-19T23:17:24.438Z,5.18
2023-02-19T23:19:51.077Z,7.00
2023-02-19T23:22:17.944Z,6.57
2023-02-19T23:24:44.719Z,6.43
2023-02-19T23:27:11.333Z,6.90
2023-02-19T23:29:38.119Z,6.55
2023-02-19T23:32:04.941Z,6.03
2023-02-19T23:34:31.937Z,7.22
2023-02-19T23:37:02.362Z,7.80
2023-02-19T23:39:29.220Z,6.97
2023-02-19T23:41:57.317Z,8.18
2023-02-19T23:44:25.269Z,8.40
2023-02-19T23:46:52.462Z,7.72
2023-02-19T23:49:19.389Z,7.13
2023-02-19T23:51:46.418Z,8.48
2023-02-19T23:54:13.131Z,7.10
2023-02-19T23:56:39.875Z,6.78
2023-02-19T23:59:06.638Z,7.18
